createdAt,value
2023-12-14T00:01:03.425Z,97478.60
2023-12-14T00:03:45.574Z,97480.20
2023-12-14T00:06:20.738Z,97484.40
2023-12-14T00:08:55.580Z,97483.80
2023-12-14T00:11:31.812Z,97486.40
2023-12-14T00:14:07.134Z,97494.40
2023-12-14T00:16:41.988Z,97495.40
2023-12-14T00:19:16.818Z,97494.00
2023-12-14T00:21:51.891Z,97498.60
2023-12-14T00:24:27.498Z,97497.60
2023-12-14T00:27:02.355Z,97499.80
2023-12-14T00:29:37.140Z,97506.80
2023-12-14T00:32:13.061Z,97506.20
2023-12-14T00:34:47.971Z,97510.20
2023-12-14T00:37:22.855Z,97511.20
2023-12-14T00:39:58.241Z,97516.20
2023-12-14T00:42:33.168Z,97518.00
2023-12-14T00:45:10.009Z,97523.20
2023-12-14T00:47:44.754Z,97524.20
2023-12-14T00:50:19.783Z,97524.60
2023-12-14T00:52:54.640Z,97527.00
2023-12-14T00:55:29.769Z,97534.00
2023-12-14T00:58:04.796Z,97533.40
2023-12-14T01:00:39.643Z,97536.60
2023-12-14T01:03:15.443Z,97534.60
2023-12-14T01:05:51.093Z,97537.00
2023-12-14T01:08:25.870Z,97534.60
2023-12-14T01:11:00.581Z,97537.00
2023-12-14T01:13:35.509Z,97536.00
2023-12-14T01:16:11.985Z,97540.40
2023-12-14T01:18:46.964Z,97544.20
2023-12-14T01:21:21.686Z,97547.60
2023-12-14T01:23:56.383Z,97549.40
2023-12-14T01:26:31.128Z,97546.20
2023-12-14T01:29:05.981Z,97547.60
2023-12-14T01:31:40.754Z,97544.00
2023-12-14T01:34:16.821Z,97537.80
2023-12-14T01:36:51.663Z,97532.60
2023-12-14T01:39:26.643Z,97526.80
2023-12-14T01:42:01.394Z,97526.20
2023-12-14T01:44:36.136Z,97528.80
2023-12-14T01:47:11.205Z,97527.00
2023-12-14T01:49:46.171Z,97524.20
2023-12-14T01:52:20.849Z,97526.20
2023-12-14T01:54:57.165Z,97529.00
2023-12-14T01:57:31.910Z,97527.80
2023-12-14T02:00:08.487Z,97531.40
2023-12-14T02:02:43.181Z,97530.00
2023-12-14T02:05:17.971Z,97533.00
2023-12-14T02:07:52.835Z,97532.20
2023-12-14T02:10:27.504Z,97533.40
2023-12-14T02:13:03.398Z,97531.20
2023-12-14T02:15:38.235Z,97534.40
2023-12-14T02:18:13.080Z,97536.20
2023-12-14T02:20:47.916Z,97535.80
2023-12-14T02:23:22.568Z,97540.80
2023-12-14T02:25:57.410Z,97549.40
2023-12-14T02:28:32.151Z,97552.80
2023-12-14T02:31:07.772Z,97560.00
2023-12-14T02:33:42.690Z,97559.80
2023-12-14T02:36:17.625Z,97564.40
2023-12-14T02:38:52.532Z,97562.60
2023-12-14T02:41:27.415Z,97566.80
2023-12-14T02:44:02.093Z,97570.20
2023-12-14T02:46:36.859Z,97570.60
2023-12-14T02:49:11.996Z,97575.80
2023-12-14T02:51:46.750Z,97577.40
2023-12-14T02:54:21.487Z,97581.80
2023-12-14T02:56:56.756Z,97588.00
2023-12-14T02:59:31.662Z,97595.00
2023-12-14T03:02:07.346Z,97596.40
2023-12-14T03:04:44.573Z,97598.20
2023-12-14T03:07:20.448Z,97598.60
2023-12-14T03:09:55.152Z,97597.20
2023-12-14T03:12:29.987Z,97600.40
2023-12-14T03:15:05.173Z,97599.80
2023-12-14T03:17:41.776Z,97602.20
2023-12-14T03:20:19.749Z,97602.40
2023-12-14T03:22:55.187Z,97606.80
2023-12-14T03:25:30.073Z,97612.20
2023-12-14T03:28:05.176Z,97616.00
2023-12-14T03:30:39.991Z,97618.00
2023-12-14T03:33:15.081Z,97620.80
2023-12-14T03:35:49.798Z,97625.20
2023-12-14T03:38:24.589Z,97622.40
2023-12-14T03:40:59.410Z,97621.80
2023-12-14T03:43:34.269Z,97622.80
2023-12-14T03:46:09.759Z,97624.00
2023-12-14T03:48:44.492Z,97635.20
2023-12-14T03:51:21.744Z,97644.00
2023-12-14T03:53:56.461Z,97643.20
2023-12-14T03:56:31.246Z,97646.00
2023-12-14T03:59:05.997Z,97640.20
2023-12-14T04:01:41.961Z,97641.40
2023-12-14T04:04:17.148Z,97643.00
2023-12-14T04:06:52.572Z,97653.40
2023-12-14T04:09:27.798Z,97663.80
2023-12-14T04:12:02.422Z,97665.20
2023-12-14T04:14:37.116Z,97675.80
2023-12-14T04:17:12.924Z,97680.00
2023-12-14T04:19:47.733Z,97681.40
2023-12-14T04:22:22.501Z,97683.80
2023-12-14T04:24:57.502Z,97688.60
2023-12-14T04:27:32.146Z,97693.20
2023-12-14T04:30:11.885Z,97693.80
2023-12-14T04:32:48.981Z,97699.20
2023-12-14T04:35:24.444Z,97702.80
2023-12-14T04:37:59.155Z,97710.60
2023-12-14T04:40:34.493Z,97712.00
2023-12-14T04:43:09.237Z,97722.40
2023-12-14T04:45:44.240Z,97727.00
2023-12-14T04:48:19.141Z,97729.00
2023-12-14T04:50:54.245Z,97727.40
2023-12-14T04:53:29.118Z,97727.20
2023-12-14T04:56:04.115Z,97732.20
2023-12-14T04:58:38.842Z,97737.80
2023-12-14T05:01:14.174Z,97741.20
2023-12-14T05:03:49.055Z,97746.20
2023-12-14T05:06:24.097Z,97746.20
2023-12-14T05:09:00.281Z,97748.60
2023-12-14T05:11:35.189Z,97747.20
2023-12-14T05:14:10.057Z,97746.00
2023-12-14T05:16:45.799Z,97751.80
2023-12-14T05:19:21.010Z,97757.00
2023-12-14T05:21:55.927Z,97758.00
2023-12-14T05:24:30.650Z,97765.40
2023-12-14T05:27:05.855Z,97769.80
2023-12-14T05:29:40.541Z,97774.80
2023-12-14T05:32:15.265Z,97778.20
2023-12-14T05:34:50.113Z,97778.60
2023-12-14T05:37:24.932Z,97783.00
2023-12-14T05:39:59.704Z,97788.20
2023-12-14T05:42:34.875Z,97791.60
2023-12-14T05:45:12.785Z,97795.80
2023-12-14T05:47:47.900Z,97800.40
2023-12-14T05:50:28.804Z,97802.60
2023-12-14T05:53:03.841Z,97805.00
2023-12-14T05:55:39.687Z,97805.60
2023-12-14T05:58:14.472Z,97803.20
2023-12-14T06:00:49.364Z,97807.60
2023-12-14T06:03:24.059Z,97810.80
2023-12-14T06:05:58.803Z,97818.20
2023-12-14T06:08:33.438Z,97826.60
2023-12-14T06:11:08.617Z,97832.20
2023-12-14T06:13:43.259Z,97843.00
2023-12-14T06:16:18.008Z,97847.20
2023-12-14T06:18:52.736Z,97852.00
2023-12-14T06:21:29.831Z,97853.80
2023-12-14T06:24:04.864Z,97851.00
2023-12-14T06:26:44.452Z,97848.40
2023-12-14T06:29:19.403Z,97856.40
2023-12-14T06:31:54.225Z,97860.20
2023-12-14T06:34:29.150Z,97868.00
2023-12-14T06:37:04.220Z,97870.20
2023-12-14T06:39:38.849Z,97874.20
2023-12-14T06:42:14.167Z,97878.60
2023-12-14T06:44:48.886Z,97879.00
2023-12-14T06:47:23.588Z,97881.80
2023-12-14T06:49:59.088Z,97882.60
2023-12-14T06:52:36.686Z,97889.60
2023-12-14T06:55:15.802Z,97891.80
2023-12-14T06:57:50.476Z,97888.40
2023-12-14T07:00:25.948Z,97889.40
2023-12-14T07:03:00.956Z,97895.00
2023-12-14T07:05:36.231Z,97902.60
2023-12-14T07:08:11.166Z,97907.60
2023-12-14T07:10:48.273Z,97909.20
2023-12-14T07:13:23.308Z,97909.60
2023-12-14T07:15:58.634Z,97910.60
2023-12-14T07:18:33.743Z,97913.20
2023-12-14T07:21:10.540Z,97921.60
2023-12-14T07:23:45.578Z,97922.60
2023-12-14T07:26:20.796Z,97923.60
2023-12-14T07:28:56.216Z,97927.40
2023-12-14T07:31:31.340Z,97931.00
2023-12-14T07:34:06.025Z,97936.40
2023-12-14T07:36:40.713Z,97943.80
2023-12-14T07:39:15.393Z,97945.80
2023-12-14T07:41:50.366Z,97955.20
2023-12-14T07:44:26.449Z,97960.80
2023-12-14T07:47:03.498Z,97962.00
2023-12-14T07:49:38.767Z,97963.60
2023-12-14T07:52:15.023Z,97966.20
2023-12-14T07:54:49.788Z,97975.20
2023-12-14T07:57:25.090Z,97981.20
2023-12-14T07:59:59.730Z,97983.60
2023-12-14T08:02:34.643Z,97986.00
2023-12-14T08:05:10.855Z,97987.60
2023-12-14T08:07:45.652Z,97990.80
2023-12-14T08:10:21.385Z,97995.20
2023-12-14T08:12:56.198Z,98000.80
2023-12-14T08:15:31.260Z,98002.40
2023-12-14T08:18:06.638Z,98002.40
2023-12-14T08:20:41.698Z,98012.00
2023-12-14T08:23:16.468Z,98016.20
2023-12-14T08:25:51.601Z,98019.00
2023-12-14T08:28:26.468Z,98021.00
2023-12-14T08:31:03.486Z,98017.00
2023-12-14T08:33:38.342Z,98017.60
2023-12-14T08:36:17.788Z,98022.60
2023-12-14T08:38:52.744Z,98035.00
2023-12-14T08:41:27.617Z,98036.80
2023-12-14T08:44:02.412Z,98048.20
2023-12-14T08:46:46.708Z,98051.00
2023-12-14T08:49:21.500Z,98051.00
2023-12-14T08:51:56.755Z,98055.60
2023-12-14T08:54:31.555Z,98064.80
2023-12-14T08:57:07.267Z,98066.60
2023-12-14T08:59:44.467Z,98072.60
2023-12-14T09:02:20.066Z,98072.80
2023-12-14T09:04:55.459Z,98075.60
2023-12-14T09:07:30.380Z,98076.00
2023-12-14T09:10:05.725Z,98079.40
2023-12-14T09:12:40.482Z,98081.80
2023-12-14T09:15:16.869Z,98085.80
2023-12-14T09:17:51.777Z,98090.40
2023-12-14T09:20:28.174Z,98092.00
2023-12-14T09:23:04.887Z,98097.40
2023-12-14T09:25:40.914Z,98103.20
2023-12-14T09:28:16.255Z,98108.40
2023-12-14T09:30:51.450Z,98109.40
2023-12-14T09:33:26.501Z,98111.20
2023-12-14T09:36:01.490Z,98115.80
2023-12-14T09:38:37.248Z,98118.20
2023-12-14T09:41:12.071Z,98117.60
2023-12-14T09:43:47.568Z,98116.60
2023-12-14T09:46:23.208Z,98117.00
2023-12-14T09:49:00.101Z,98119.40
2023-12-14T09:51:35.036Z,98118.60
2023-12-14T09:54:10.018Z,98117.60
2023-12-14T09:56:53.975Z,98116.40
2023-12-14T09:59:28.683Z,98123.80
2023-12-14T10:02:15.088Z,98129.80
2023-12-14T10:04:50.642Z,98129.20
2023-12-14T10:07:26.711Z,98129.00
2023-12-14T10:10:15.525Z,98133.00
2023-12-14T10:13:00.222Z,98136.60
2023-12-14T10:15:44.863Z,98137.80
2023-12-14T10:18:27.023Z,98135.40
2023-12-14T10:21:01.835Z,98140.60
2023-12-14T10:23:37.933Z,98139.80
2023-12-14T10:26:12.605Z,98143.60
2023-12-14T10:28:47.422Z,98145.80
2023-12-14T10:31:22.555Z,98146.20
2023-12-14T10:33:57.896Z,98149.80
2023-12-14T10:36:33.268Z,98150.40
2023-12-14T10:39:10.570Z,98156.20
2023-12-14T10:41:46.174Z,98157.20
2023-12-14T10:44:33.666Z,98159.80
2023-12-14T10:47:18.006Z,98164.20
2023-12-14T10:49:54.194Z,98166.80
2023-12-14T10:52:29.705Z,98172.40
2023-12-14T10:55:10.024Z,98172.20
2023-12-14T10:57:45.828Z,98172.80
2023-12-14T11:00:22.929Z,98178.80
2023-12-14T11:03:00.910Z,98181.60
2023-12-14T11:05:37.893Z,98178.60
2023-12-14T11:08:13.760Z,98178.80
2023-12-14T11:10:57.532Z,98180.00
2023-12-14T11:13:35.314Z,98182.80
2023-12-14T11:16:11.959Z,98181.00
2023-12-14T11:18:47.758Z,98181.40
2023-12-14T11:21:27.296Z,98185.20
2023-12-14T11:24:07.667Z,98190.60
2023-12-14T11:26:43.755Z,98188.60
2023-12-14T11:29:20.385Z,98191.40
2023-12-14T11:31:55.584Z,98196.40
2023-12-14T11:34:31.250Z,98196.00
2023-12-14T11:37:07.379Z,98201.00
2023-12-14T11:39:42.507Z,98199.00
2023-12-14T11:42:20.600Z,98197.20
2023-12-14T11:44:55.371Z,98196.80
2023-12-14T11:47:30.574Z,98196.80
2023-12-14T11:50:05.917Z,98191.00
2023-12-14T11:52:41.588Z,98197.80
2023-12-14T11:55:18.198Z,98202.80
2023-12-14T11:57:54.021Z,98202.60
2023-12-14T12:00:31.939Z,98202.60
2023-12-14T12:03:18.541Z,98204.00
2023-12-14T12:05:55.033Z,98208.20
2023-12-14T12:08:30.000Z,98209.60
2023-12-14T12:11:05.145Z,98214.20
2023-12-14T12:13:39.950Z,98215.60
2023-12-14T12:16:17.452Z,98219.80
2023-12-14T12:18:53.395Z,98223.40
2023-12-14T12:21:28.417Z,98223.40
2023-12-14T12:24:09.328Z,98232.80
2023-12-14T12:26:49.419Z,98232.40
2023-12-14T12:29:24.197Z,98233.80
2023-12-14T12:31:59.017Z,98235.80
2023-12-14T12:34:33.769Z,98239.80
2023-12-14T12:37:09.038Z,98236.20
2023-12-14T12:39:47.290Z,98242.60
2023-12-14T12:42:26.535Z,98246.00
2023-12-14T12:45:01.859Z,98249.00
2023-12-14T12:47:36.791Z,98249.40
2023-12-14T12:50:14.187Z,98253.80
2023-12-14T12:52:50.764Z,98255.80
2023-12-14T12:55:26.146Z,98253.80
2023-12-14T12:58:06.015Z,98260.80
2023-12-14T13:00:40.795Z,98264.20
2023-12-14T13:03:15.837Z,98271.80
2023-12-14T13:05:50.811Z,98283.20
2023-12-14T13:08:25.902Z,98288.40
2023-12-14T13:11:01.349Z,98291.20
2023-12-14T13:13:36.123Z,98300.80
2023-12-14T13:16:11.817Z,98301.20
2023-12-14T13:18:47.357Z,98306.00
2023-12-14T13:21:23.487Z,98306.40
2023-12-14T13:23:59.251Z,98310.80
2023-12-14T13:26:34.655Z,98310.00
2023-12-14T13:29:09.428Z,98315.60
2023-12-14T13:31:44.415Z,98320.60
2023-12-14T13:34:19.618Z,98317.20
2023-12-14T13:36:54.462Z,98321.80
2023-12-14T13:39:29.293Z,98326.40
2023-12-14T13:42:04.672Z,98330.00
2023-12-14T13:44:39.433Z,98334.60
2023-12-14T13:47:14.541Z,98339.80
2023-12-14T13:49:50.310Z,98349.40
2023-12-14T13:52:25.946Z,98354.60
2023-12-14T13:55:01.914Z,98356.20
2023-12-14T13:57:36.843Z,98362.00
2023-12-14T14:00:15.129Z,98365.40
2023-12-14T14:02:50.374Z,98375.40
2023-12-14T14:05:25.824Z,98382.20
2023-12-14T14:08:01.459Z,98382.00
2023-12-14T14:10:36.296Z,98385.40
2023-12-14T14:13:11.028Z,98394.40
2023-12-14T14:15:45.962Z,98395.60
2023-12-14T14:18:21.179Z,98395.40
2023-12-14T14:20:56.200Z,98397.80
2023-12-14T14:23:32.449Z,98399.60
2023-12-14T14:26:08.313Z,98407.00
2023-12-14T14:28:43.268Z,98409.00
2023-12-14T14:31:18.182Z,98413.60
2023-12-14T14:33:53.879Z,98420.20
2023-12-14T14:36:28.949Z,98424.60
2023-12-14T14:39:05.953Z,98430.00
2023-12-14T14:41:40.890Z,98439.40
2023-12-14T14:44:15.800Z,98438.80
2023-12-14T14:46:50.602Z,98447.20
2023-12-14T14:49:25.358Z,98453.00
2023-12-14T14:52:00.330Z,98458.20
2023-12-14T14:54:35.461Z,98463.60
2023-12-14T14:57:11.070Z,98467.20
2023-12-14T14:59:45.944Z,98471.40
2023-12-14T15:02:20.840Z,98474.80
2023-12-14T15:04:55.875Z,98477.80
2023-12-14T15:07:31.667Z,98476.80
2023-12-14T15:10:07.738Z,98480.20
2023-12-14T15:12:42.418Z,98480.60
2023-12-14T15:15:17.998Z,98479.20
2023-12-14T15:17:53.012Z,98479.40
2023-12-14T15:20:28.337Z,98482.80
2023-12-14T15:23:06.556Z,98485.60
2023-12-14T15:25:41.861Z,98484.20
2023-12-14T15:28:16.800Z,98486.40
2023-12-14T15:30:51.885Z,98486.20
2023-12-14T15:33:27.228Z,98489.60
2023-12-14T15:36:02.518Z,98493.80
2023-12-14T15:38:37.181Z,98498.60
2023-12-14T15:41:12.608Z,98502.20
2023-12-14T15:43:47.395Z,98505.20
2023-12-14T15:46:22.518Z,98510.60
2023-12-14T15:48:57.281Z,98513.00
2023-12-14T15:51:32.174Z,98513.60
2023-12-14T15:54:07.358Z,98517.80
2023-12-14T15:56:42.016Z,98513.80
2023-12-14T15:59:18.142Z,98521.40
2023-12-14T16:01:53.328Z,98521.60
2023-12-14T16:04:28.078Z,98521.80
2023-12-14T16:07:03.169Z,98527.20
2023-12-14T16:09:38.077Z,98534.40
2023-12-14T16:12:13.138Z,98535.00
2023-12-14T16:14:48.042Z,98543.00
2023-12-14T16:17:23.040Z,98547.20
2023-12-14T16:19:57.968Z,98552.20
2023-12-14T16:22:33.000Z,98556.00
2023-12-14T16:25:11.142Z,98560.00
2023-12-14T16:27:47.646Z,98566.80
2023-12-14T16:30:22.389Z,98570.00
2023-12-14T16:32:57.800Z,98571.60
2023-12-14T16:35:33.601Z,98575.40
2023-12-14T16:38:08.408Z,98581.60
2023-12-14T16:40:43.387Z,98583.80
2023-12-14T16:43:20.193Z,98591.20
2023-12-14T16:45:55.373Z,98592.40
2023-12-14T16:48:30.197Z,98599.60
2023-12-14T16:51:08.120Z,98602.80
2023-12-14T16:53:43.501Z,98603.60
2023-12-14T16:56:20.148Z,98605.80
2023-12-14T16:58:55.202Z,98609.80
2023-12-14T17:01:30.641Z,98612.40
2023-12-14T17:04:05.693Z,98615.60
2023-12-14T17:06:43.078Z,98620.40
2023-12-14T17:09:20.615Z,98625.20
2023-12-14T17:11:55.845Z,98630.20
2023-12-14T17:14:31.503Z,98629.40
2023-12-14T17:17:07.043Z,98630.00
2023-12-14T17:19:42.347Z,98631.60
2023-12-14T17:22:18.342Z,98637.20
2023-12-14T17:24:54.192Z,98644.00
2023-12-14T17:27:30.161Z,98646.00
2023-12-14T17:30:05.296Z,98645.00
2023-12-14T17:32:40.716Z,98643.60
2023-12-14T17:35:16.120Z,98647.40
2023-12-14T17:37:51.129Z,98651.40
2023-12-14T17:40:26.950Z,98651.20
2023-12-14T17:43:02.256Z,98658.20
2023-12-14T17:45:40.285Z,98663.40
2023-12-14T17:48:16.688Z,98664.20
2023-12-14T17:50:51.813Z,98667.00
2023-12-14T17:53:27.134Z,98670.20
2023-12-14T17:56:02.720Z,98677.80
2023-12-14T17:58:37.459Z,98682.20
2023-12-14T18:01:12.656Z,98690.00
2023-12-14T18:03:47.615Z,98692.20
2023-12-14T18:06:24.794Z,98692.60
2023-12-14T18:09:00.311Z,98698.80
2023-12-14T18:11:35.335Z,98703.00
2023-12-14T18:14:10.502Z,98705.00
2023-12-14T18:16:45.906Z,98706.20
2023-12-14T18:19:21.302Z,98710.60
2023-12-14T18:21:56.407Z,98715.00
2023-12-14T18:24:31.464Z,98713.20
2023-12-14T18:27:07.237Z,98717.00
2023-12-14T18:29:44.062Z,98720.20
2023-12-14T18:32:19.211Z,98726.20
2023-12-14T18:34:54.497Z,98730.80
2023-12-14T18:37:30.163Z,98731.40
2023-12-14T18:40:05.994Z,98735.60
2023-12-14T18:42:41.140Z,98738.00
2023-12-14T18:45:16.860Z,98745.40
2023-12-14T18:47:54.382Z,98747.20
2023-12-14T18:50:31.004Z,98754.60
2023-12-14T18:53:10.358Z,98765.00
2023-12-14T18:55:45.720Z,98764.40
2023-12-14T18:58:21.074Z,98764.80
2023-12-14T19:00:57.430Z,98762.40
2023-12-14T19:03:32.616Z,98767.40
2023-12-14T19:06:11.524Z,98771.20
2023-12-14T19:08:47.138Z,98774.40
2023-12-14T19:11:24.722Z,98777.20
2023-12-14T19:13:59.931Z,98778.60
2023-12-14T19:16:40.889Z,98781.60
2023-12-14T19:19:18.836Z,98784.80
2023-12-14T19:21:55.975Z,98786.00
2023-12-14T19:24:31.213Z,98793.00
2023-12-14T19:27:09.600Z,98797.40
2023-12-14T19:29:45.707Z,98798.00
2023-12-14T19:32:21.431Z,98798.40
2023-12-14T19:34:57.765Z,98801.80
2023-12-14T19:37:34.305Z,98800.60
2023-12-14T19:40:14.956Z,98798.60
2023-12-14T19:42:50.901Z,98805.20
2023-12-14T19:45:26.678Z,98814.00
2023-12-14T19:48:03.447Z,98818.00
2023-12-14T19:50:39.201Z,98823.60
2023-12-14T19:53:17.664Z,98828.60
2023-12-14T19:55:53.299Z,98830.00
2023-12-14T19:58:28.928Z,98837.40
2023-12-14T20:01:11.793Z,98843.00
2023-12-14T20:03:48.470Z,98847.80
2023-12-14T20:06:27.744Z,98855.80
2023-12-14T20:09:04.663Z,98855.20
2023-12-14T20:11:43.494Z,98866.40
2023-12-14T20:14:20.087Z,98866.00
2023-12-14T20:16:55.256Z,98870.20
2023-12-14T20:19:30.543Z,98880.60
2023-12-14T20:22:06.609Z,98880.40
2023-12-14T20:24:43.905Z,98879.80
2023-12-14T20:27:20.054Z,98885.20
2023-12-14T20:29:55.781Z,98889.80
2023-12-14T20:32:30.937Z,98901.00
2023-12-14T20:35:06.781Z,98900.40
2023-12-14T20:37:42.342Z,98906.60
2023-12-14T20:40:20.014Z,98909.40
2023-12-14T20:42:56.676Z,98914.80
2023-12-14T20:45:34.057Z,98915.20
2023-12-14T20:48:10.465Z,98924.80
2023-12-14T20:50:45.562Z,98923.80
2023-12-14T20:53:20.924Z,98926.00
2023-12-14T20:55:56.493Z,98935.80
2023-12-14T20:58:31.725Z,98936.20
2023-12-14T21:01:07.500Z,98936.80
2023-12-14T21:03:44.884Z,98942.60
2023-12-14T21:06:22.313Z,98938.80
2023-12-14T21:08:59.192Z,98945.60
2023-12-14T21:11:34.127Z,98944.80
2023-12-14T21:14:13.321Z,98945.20
2023-12-14T21:16:51.936Z,98946.40
2023-12-14T21:19:26.982Z,98947.20
2023-12-14T21:22:01.785Z,98952.80
2023-12-14T21:24:41.804Z,98958.40
2023-12-14T21:27:34.896Z,98964.20
2023-12-14T21:30:12.970Z,98968.60
2023-12-14T21:32:49.673Z,98968.40
2023-12-14T21:35:24.708Z,98974.00
2023-12-14T21:37:59.590Z,98977.60
2023-12-14T21:40:34.526Z,98980.40
2023-12-14T21:43:09.252Z,98982.00
2023-12-14T21:45:44.357Z,98987.00
2023-12-14T21:48:19.416Z,98987.80
2023-12-14T21:50:54.635Z,98992.00
2023-12-14T21:53:29.728Z,99000.60
2023-12-14T21:56:04.666Z,99003.00
2023-12-14T21:58:39.433Z,99008.00
2023-12-14T22:01:15.080Z,99012.00
2023-12-14T22:03:49.816Z,99017.80
2023-12-14T22:06:24.838Z,99021.20
2023-12-14T22:08:59.645Z,99028.00
2023-12-14T22:11:34.359Z,99029.00
2023-12-14T22:14:09.757Z,99037.80
2023-12-14T22:16:44.927Z,99043.20
2023-12-14T22:19:20.127Z,99047.80
2023-12-14T22:21:55.119Z,99057.00
2023-12-14T22:24:29.959Z,99060.40
2023-12-14T22:27:04.981Z,99065.80
2023-12-14T22:29:40.016Z,99069.00
2023-12-14T22:32:14.836Z,99074.00
2023-12-14T22:34:49.653Z,99078.00
2023-12-14T22:37:24.459Z,99082.40
2023-12-14T22:39:59.137Z,99089.60
2023-12-14T22:42:33.876Z,99094.40
2023-12-14T22:45:10.537Z,99093.80
2023-12-14T22:47:45.473Z,99096.40
2023-12-14T22:50:20.632Z,99097.20
2023-12-14T22:52:55.619Z,99099.60
2023-12-14T22:55:30.311Z,99102.60
2023-12-14T22:58:05.079Z,99107.40
2023-12-14T23:00:40.165Z,99111.80
2023-12-14T23:03:15.393Z,99116.80
2023-12-14T23:05:50.335Z,99118.80
2023-12-14T23:08:25.402Z,99120.60
2023-12-14T23:11:00.419Z,99122.20
2023-12-14T23:13:35.374Z,99125.40
2023-12-14T23:16:11.812Z,99129.40
2023-12-14T23:18:46.694Z,99127.80
2023-12-14T23:21:21.709Z,99133.40
2023-12-14T23:23:56.505Z,99137.40
2023-12-14T23:26:31.497Z,99141.60
2023-12-14T23:29:06.513Z,99140.40
2023-12-14T23:31:41.451Z,99146.20
2023-12-14T23:34:16.347Z,99149.20
2023-12-14T23:36:51.799Z,99150.00
2023-12-14T23:39:26.644Z,99148.40
2023-12-14T23:42:01.627Z,99152.60
2023-12-14T23:44:36.848Z,99155.80
2023-12-14T23:47:12.754Z,99153.20
2023-12-14T23:49:48.002Z,99159.20
2023-12-14T23:52:23.058Z,99160.80
2023-12-14T23:54:58.022Z,99164.20
2023-12-14T23:57:33.398Z,99170.20
